Time;durP1;ratioP1;P1;durP2;ratioP2;P2;SDS_P1;SDS_P2;PMS_P1;PMS_P2;Temp;Humidity;BMP_temperature;BMP_pressure;BME280_temperature;BME280_humidity;BME280_pressure;Samples;Min_cycle;Max_cycle;Signal;HPM_P1;HPM_P2
2023/05/17 00:02:17;;;;;;;8.40;3.72;;;;;;;13.94;52.71;98644.31;5093597;28;20400;-46
2023/05/17 00:04:44;;;;;;;8.98;2.22;;;;;;;13.94;52.63;98646.94;5094744;28;20038;-47
2023/05/17 00:07:09;;;;;;;5.97;2.15;;;;;;;13.93;52.42;98643.50;5094764;28;20544;-47
2023/05/17 00:09:35;;;;;;;19.50;14.27;;;;;;;13.86;53.04;98645.41;5094727;28;20103;-47
2023/05/17 00:12:01;;;;;;;15.95;4.10;;;;;;;13.89;53.49;98634.44;5094667;28;20103;-46
2023/05/17 00:14:27;;;;;;;7.78;2.83;;;;;;;13.85;53.26;98645.66;5094674;28;20046;-46
2023/05/17 00:16:53;;;;;;;15.13;2.83;;;;;;;13.65;53.87;98628.25;5094654;28;20489;-47
2023/05/17 00:19:18;;;;;;;8.15;2.45;;;;;;;13.63;54.24;98630.28;5094591;28;20028;-46
2023/05/17 00:21:44;;;;;;;13.88;3.50;;;;;;;13.63;54.50;98640.84;5094439;28;20464;-49
2023/05/17 00:24:10;;;;;;;9.13;2.78;;;;;;;13.64;54.36;98636.38;5093072;28;20089;-49
2023/05/17 00:26:35;;;;;;;7.18;2.97;;;;;;;13.56;54.54;98632.19;5093345;28;20111;-50
2023/05/17 00:29:02;;;;;;;16.75;2.80;;;;;;;13.54;55.12;98642.97;5093046;28;20082;-49
2023/05/17 00:31:28;;;;;;;12.05;3.20;;;;;;;13.52;54.90;98636.28;5093279;28;20024;-49
2023/05/17 00:33:53;;;;;;;7.25;3.08;;;;;;;13.46;55.34;98634.53;5094307;28;20028;-49
2023/05/17 00:36:19;;;;;;;9.52;2.97;;;;;;;13.39;55.60;98645.97;5092926;28;20028;-49
2023/05/17 00:38:45;;;;;;;11.57;3.10;;;;;;;13.35;55.83;98634.25;5094116;28;20036;-49
2023/05/17 00:41:11;;;;;;;13.85;3.05;;;;;;;13.40;55.82;98633.59;5093953;28;20098;-49
2023/05/17 00:43:38;;;;;;;8.95;3.53;;;;;;;13.36;55.70;98625.31;5093888;28;20056;-49
2023/05/17 00:46:03;;;;;;;11.60;2.88;;;;;;;13.34;55.89;98618.66;5092695;28;20097;-49
2023/05/17 00:48:29;;;;;;;8.45;3.28;;;;;;;13.29;55.96;98629.03;5093292;28;20037;-49
2023/05/17 00:50:57;;;;;;;9.98;3.28;;;;;;;13.18;56.17;98634.00;5092598;28;20024;-49
2023/05/17 00:53:23;;;;;;;6.63;2.67;;;;;;;13.26;56.49;98606.56;5093923;28;20095;-49
2023/05/17 00:55:49;;;;;;;11.80;2.60;;;;;;;13.33;55.66;98617.03;5075815;28;20016;-49
2023/05/17 00:58:15;;;;;;;11.30;3.50;;;;;;;13.23;56.03;98628.06;5092479;28;20035;-49
2023/05/17 01:00:45;;;;;;;8.57;3.83;;;;;;;13.16;56.51;98625.50;5092398;28;20394;-49
2023/05/17 01:03:11;;;;;;;11.52;2.42;;;;;;;13.11;56.27;98620.06;5092413;28;20107;-49
2023/05/17 01:05:37;;;;;;;12.82;2.95;;;;;;;13.05;56.48;98630.69;5093514;28;20505;-49
2023/05/17 01:08:03;;;;;;;11.73;2.60;;;;;;;13.05;56.30;98628.06;5093544;28;20397;-48
2023/05/17 01:11:16;;;;;;;11.63;3.08;;;;;;;13.19;56.22;98626.91;5092232;28;20020;-49
2023/05/17 01:13:54;;;;;;;9.43;2.30;;;;;;;13.19;56.25;98624.25;5014530;28;20177;-49
2023/05/17 01:16:39;;;;;;;10.68;2.13;;;;;;;13.24;55.77;98621.78;5015417;28;20090;-49
2023/05/17 01:19:26;;;;;;;16.15;3.40;;;;;;;13.21;55.02;98627.47;5014541;28;20108;-49
2023/05/17 01:22:04;;;;;;;9.02;2.97;;;;;;;13.10;55.45;98630.81;5030998;28;20045;-49
2023/05/17 01:25:00;;;;;;;14.38;6.55;;;;;;;13.14;55.47;98624.91;5014264;28;20032;-49
2023/05/17 01:27:29;;;;;;;27.63;24.30;;;;;;;13.23;55.21;98629.91;5030782;28;20059;-49
2023/05/17 01:29:56;;;;;;;8.52;3.83;;;;;;;13.19;55.01;98621.63;5030728;28;20029;-48
2023/05/17 01:32:24;;;;;;;10.40;3.28;;;;;;;13.19;55.07;98625.06;5014405;28;20053;-49
2023/05/17 01:34:51;;;;;;;13.82;2.53;;;;;;;13.23;54.81;98628.06;4997906;28;20061;-49
2023/05/17 01:37:17;;;;;;;11.82;2.47;;;;;;;13.24;54.44;98626.22;5014100;28;20033;-49
2023/05/17 01:39:42;;;;;;;6.80;2.53;;;;;;;13.16;54.42;98620.25;5013922;28;20075;-49
2023/05/17 01:42:23;;;;;;;5.28;1.95;;;;;;;13.05;54.33;98601.72;5013663;28;20140;-49
2023/05/17 01:45:07;;;;;;;11.07;2.20;;;;;;;12.88;54.93;98622.53;5013836;28;20034;-48
2023/05/17 01:47:47;;;;;;;11.05;2.38;;;;;;;12.72;55.07;98621.25;5053828;28;20116;-49
2023/05/17 01:50:22;;;;;;;8.32;2.10;;;;;;;12.64;55.48;98616.28;5092803;28;20052;-48
2023/05/17 01:52:51;;;;;;;;;;;;;;;12.55;55.83;98610.44;5092116;28;20031;-48
2023/05/17 01:55:26;;;;;;;8.63;2.28;;;;;;;12.55;55.78;98608.63;5091364;28;19952;-48
2023/05/17 01:57:54;;;;;;;10.07;2.20;;;;;;;12.54;55.44;98622.00;5091365;28;20505;-49
2023/05/17 02:00:23;;;;;;;8.27;2.28;;;;;;;12.56;55.99;98633.94;5090587;28;20028;-48
2023/05/17 02:02:48;;;;;;;11.68;2.00;;;;;;;12.57;55.51;98638.16;5074618;28;20053;-49
2023/05/17 02:05:14;;;;;;;22.02;3.05;;;;;;;12.53;55.52;98633.56;5091133;28;20063;-49
2023/05/17 02:07:40;;;;;;;10.38;2.17;;;;;;;12.50;55.57;98634.78;5092512;28;20503;-48
2023/05/17 02:10:06;;;;;;;15.23;2.85;;;;;;;12.57;55.38;98625.00;5091180;28;20035;-48
2023/05/17 02:12:31;;;;;;;10.55;2.00;;;;;;;12.55;55.29;98618.34;5091104;28;20110;-48
2023/05/17 02:14:57;;;;;;;13.38;2.20;;;;;;;12.50;55.14;98631.34;5091043;28;20150;-49
2023/05/17 02:17:23;;;;;;;15.50;2.90;;;;;;;12.37;55.15;98629.59;5092349;28;20161;-49
2023/05/17 02:19:49;;;;;;;11.95;2.38;;;;;;;12.32;55.21;98618.94;5074137;28;20024;-49
2023/05/17 02:22:14;;;;;;;10.70;2.30;;;;;;;12.38;55.31;98623.34;5092180;28;20028;-48
2023/05/17 02:24:40;;;;;;;17.35;2.75;;;;;;;12.44;54.88;98627.75;5090884;28;20028;-48
2023/05/17 02:27:06;;;;;;;26.05;3.15;;;;;;;12.47;55.10;98621.25;5090848;28;20027;-48
2023/05/17 02:29:32;;;;;;;9.35;2.25;;;;;;;12.42;55.02;98606.09;5090840;28;20057;-48
2023/05/17 02:31:58;;;;;;;10.80;2.22;;;;;;;12.46;55.09;98615.19;5092135;28;20077;-49
2023/05/17 02:34:23;;;;;;;8.65;1.90;;;;;;;12.38;55.16;98621.50;5090793;28;20020;-48
2023/05/17 02:36:49;;;;;;;8.82;2.20;;;;;;;12.35;54.72;98623.75;5090689;28;20448;-49
2023/05/17 02:39:15;;;;;;;6.57;1.80;;;;;;;12.29;55.04;98621.97;5092289;28;20032;-48
2023/05/17 02:41:41;;;;;;;16.75;1.98;;;;;;;12.37;54.86;98617.28;5091827;28;20501;-49
2023/05/17 02:44:06;;;;;;;11.82;2.50;;;;;;;12.46;54.17;98619.66;5092186;28;20026;-48
2023/05/17 02:46:32;;;;;;;9.52;2.45;;;;;;;12.36;54.48;98622.75;5091943;28;20031;-49
2023/05/17 02:48:58;;;;;;;10.90;2.60;;;;;;;12.28;54.75;98625.63;5091899;28;20035;-49
2023/05/17 02:51:23;;;;;;;6.85;2.08;;;;;;;12.22;54.58;98614.13;5091864;28;20104;-49
2023/05/17 02:53:49;;;;;;;8.70;2.40;;;;;;;12.23;54.96;98621.00;5092149;28;20030;-49
2023/05/17 02:56:15;;;;;;;10.25;2.00;;;;;;;12.27;54.81;98611.66;5090484;28;20028;-49
2023/05/17 02:58:40;;;;;;;8.88;2.40;;;;;;;12.33;54.83;98610.00;5073682;28;20031;-49
2023/05/17 03:01:06;;;;;;;20.70;3.35;;;;;;;12.33;54.71;98617.91;5090509;28;20032;-49
2023/05/17 03:03:32;;;;;;;12.15;2.20;;;;;;;12.30;54.21;98618.34;5090438;28;20077;-49
2023/05/17 03:06:01;;;;;;;12.02;2.40;;;;;;;12.29;54.24;98609.63;5090340;28;20043;-48
2023/05/17 03:08:27;;;;;;;10.70;2.47;;;;;;;12.24;54.13;98619.19;5073545;28;20032;-49
2023/05/17 03:10:54;;;;;;;14.73;2.45;;;;;;;12.12;54.52;98619.06;5092809;28;20031;-49
2023/05/17 03:13:19;;;;;;;15.27;2.08;;;;;;;12.08;54.31;98623.94;5094539;28;20028;-49
2023/05/17 03:15:45;;;;;;;14.45;2.70;;;;;;;11.98;54.89;98628.84;5094360;28;20501;-49
2023/05/17 03:18:11;;;;;;;11.30;2.33;;;;;;;11.96;54.55;98625.63;5094444;28;20028;-48
2023/05/17 03:20:37;;;;;;;10.15;2.15;;;;;;;11.97;54.50;98621.97;5094314;28;20489;-48
2023/05/17 03:23:02;;;;;;;11.48;2.97;;;;;;;11.95;54.76;98629.25;5094364;28;20028;-49
2023/05/17 03:25:28;;;;;;;10.48;1.80;;;;;;;11.99;54.29;98623.38;5094164;28;20123;-49
2023/05/17 03:27:54;;;;;;;14.77;3.03;;;;;;;11.91;54.34;98628.88;5095561;28;20045;-49
2023/05/17 03:30:19;;;;;;;7.35;1.80;;;;;;;11.86;54.51;98635.75;5095550;28;20020;-49
2023/05/17 03:32:45;;;;;;;10.30;2.50;;;;;;;11.82;54.60;98639.81;5094152;28;20032;-49
2023/05/17 03:35:11;;;;;;;18.67;3.15;;;;;;;11.82;54.81;98635.38;5094036;28;20439;-49
2023/05/17 03:37:37;;;;;;;11.05;1.70;;;;;;;11.85;54.84;98640.22;5095358;28;20031;-49
2023/05/17 03:40:02;;;;;;;5.95;2.45;;;;;;;11.86;54.41;98638.38;5094013;28;20059;-49
2023/05/17 03:42:28;;;;;;;7.22;2.05;;;;;;;11.89;54.63;98637.97;5095022;28;20398;-49
2023/05/17 03:44:54;;;;;;;9.23;2.30;;;;;;;11.90;54.59;98631.72;5095221;28;20031;-49
2023/05/17 03:47:22;;;;;;;9.88;2.25;;;;;;;11.84;54.30;98632.53;5095171;28;20031;-49
2023/05/17 03:49:49;;;;;;;4.57;1.70;;;;;;;11.82;54.54;98640.63;5095129;28;20032;-49
2023/05/17 03:52:14;;;;;;;11.25;1.85;;;;;;;11.77;54.86;98636.00;5093745;28;20032;-49
2023/05/17 03:54:40;;;;;;;7.60;2.03;;;;;;;11.68;54.51;98650.38;5093766;28;20031;-49
2023/05/17 03:57:06;;;;;;;13.30;1.90;;;;;;;11.64;54.86;98645.75;5093764;28;20047;-49
2023/05/17 03:59:31;;;;;;;11.43;2.13;;;;;;;11.58;55.18;98657.91;5093654;28;20062;-49
2023/05/17 04:01:57;;;;;;;7.75;1.90;;;;;;;11.57;55.21;98645.78;5094973;28;20050;-49
2023/05/17 04:04:22;;;;;;;13.25;2.83;;;;;;;11.62;54.95;98651.22;5094816;28;20031;-49
2023/05/17 04:06:48;;;;;;;17.63;2.55;;;;;;;11.62;55.00;98650.41;5093581;28;20032;-49
2023/05/17 04:09:14;;;;;;;11.30;2.13;;;;;;;11.56;55.22;98652.03;5093488;28;20105;-49
2023/05/17 04:11:41;;;;;;;15.90;2.22;;;;;;;11.61;55.23;98652.25;5094715;28;20055;-49
2023/05/17 04:14:07;;;;;;;14.20;2.95;;;;;;;11.61;55.08;98649.63;5094681;28;20437;-49
2023/05/17 04:16:32;;;;;;;13.85;2.33;;;;;;;11.65;55.46;98660.50;5093349;28;20027;-49
2023/05/17 04:19:01;;;;;;;12.70;2.65;;;;;;;11.67;55.17;98653.22;5093292;28;20028;-49
2023/05/17 04:21:27;;;;;;;14.95;2.60;;;;;;;11.57;54.92;98661.56;5093242;28;20031;-49
2023/05/17 04:23:53;;;;;;;8.25;2.50;;;;;;;11.51;54.79;98657.94;5093298;28;20028;-49
2023/05/17 04:26:19;;;;;;;14.65;3.00;;;;;;;11.48;54.90;98662.78;5093090;28;20032;-48
2023/05/17 04:28:44;;;;;;;10.80;2.13;;;;;;;11.45;55.17;98657.94;5094325;28;20032;-49
2023/05/17 04:31:15;;;;;;;10.75;2.25;;;;;;;11.45;55.38;98669.28;5093131;28;20160;-49
2023/05/17 04:33:41;;;;;;;10.27;2.17;;;;;;;11.46;55.45;98670.88;5094297;28;20036;-49
2023/05/17 04:36:07;;;;;;;13.60;2.22;;;;;;;11.53;55.21;98670.84;5092973;28;20036;-49
2023/05/17 04:38:32;;;;;;;9.80;2.00;;;;;;;12.04;54.15;98672.72;5076117;28;20402;-49
2023/05/17 04:41:05;;;;;;;5.38;2.38;;;;;;;12.62;52.62;98671.78;5092665;28;20051;-48
2023/05/17 04:43:32;;;;;;;7.97;2.17;;;;;;;12.63;52.03;98667.31;5094413;28;20028;-48
2023/05/17 04:45:58;;;;;;;9.88;2.25;;;;;;;12.45;52.27;98682.00;5092689;28;20028;-48
2023/05/17 04:48:27;;;;;;;8.73;2.40;;;;;;;12.61;52.68;98670.13;5092703;28;20020;-49
2023/05/17 04:50:55;;;;;;;11.43;2.78;;;;;;;12.94;51.56;98677.00;5093923;28;20056;-48
2023/05/17 04:53:20;;;;;;;16.52;2.92;;;;;;;12.81;51.39;98687.63;5092610;28;20416;-49
2023/05/17 04:55:47;;;;;;;13.52;2.83;;;;;;;12.54;52.24;98685.19;5093869;28;20034;-48
2023/05/17 04:58:13;;;;;;;16.63;3.03;;;;;;;12.41;52.11;98696.59;5092535;28;20028;-49
2023/05/17 05:00:38;;;;;;;21.27;2.70;;;;;;;12.30;52.28;98682.28;5093721;28;20400;-49
2023/05/17 05:03:04;;;;;;;7.85;2.42;;;;;;;12.53;52.53;98684.38;5093730;28;20077;-49
2023/05/17 05:05:30;;;;;;;8.57;3.50;;;;;;;13.05;51.92;98689.44;5092298;28;20028;-48
2023/05/17 05:07:56;;;;;;;17.67;2.97;;;;;;;13.53;50.27;98680.91;5093658;28;20030;-48
2023/05/17 05:10:23;;;;;;;16.52;3.20;;;;;;;14.11;49.20;98689.38;5092244;28;20035;-49
2023/05/17 05:12:48;;;;;;;17.17;6.90;;;;;;;14.52;47.85;98693.84;5093667;28;20024;-49
2023/05/17 05:15:14;;;;;;;6.15;2.17;;;;;;;14.57;47.46;98690.59;5093522;28;20023;-49
2023/05/17 05:17:40;;;;;;;16.08;1.85;;;;;;;15.32;45.92;98697.91;5092067;28;20028;-48
2023/05/17 05:20:07;;;;;;;9.73;1.80;;;;;;;16.04;44.59;98695.97;5093417;28;20020;-48
2023/05/17 05:22:33;;;;;;;9.55;2.25;;;;;;;16.88;42.22;98693.50;5093360;28;20024;-49
2023/05/17 05:24:58;;;;;;;16.67;2.00;;;;;;;16.81;42.17;98695.50;5092196;28;20043;-48
2023/05/17 05:27:24;;;;;;;7.90;2.13;;;;;;;17.06;41.61;98686.31;5091942;28;20089;-48
2023/05/17 05:29:50;;;;;;;6.95;1.70;;;;;;;16.56;41.98;98699.31;5091904;28;20107;-49
2023/05/17 05:32:16;;;;;;;7.93;2.10;;;;;;;16.83;41.44;98698.72;5091826;28;20128;-49
2023/05/17 05:34:42;;;;;;;7.53;1.98;;;;;;;17.19;40.90;98701.91;5074769;28;20502;-49
2023/05/17 05:37:07;;;;;;;17.63;2.10;;;;;;;17.05;40.92;98696.13;5091711;28;20031;-48
2023/05/17 05:39:33;;;;;;;14.02;2.40;;;;;;;17.53;40.33;98697.34;5091764;28;20077;-49
2023/05/17 05:41:59;;;;;;;8.45;1.67;;;;;;;18.39;38.66;98693.31;5091462;28;20048;-48
2023/05/17 05:44:25;;;;;;;5.40;1.60;;;;;;;19.40;37.13;98691.72;5092806;28;20039;-49
2023/05/17 05:46:50;;;;;;;6.75;1.80;;;;;;;20.51;35.32;98689.72;5092866;28;20016;-47
2023/05/17 05:49:16;;;;;;;6.65;1.83;;;;;;;20.98;33.68;98687.88;5092842;28;20024;-47
2023/05/17 05:51:41;;;;;;;5.00;1.73;;;;;;;21.23;32.83;98694.25;5091403;28;20111;-46
2023/05/17 05:54:07;;;;;;;6.95;1.70;;;;;;;21.58;32.34;98677.38;5092774;28;20016;-47
2023/05/17 05:56:33;;;;;;;10.25;2.63;;;;;;;22.29;31.67;98680.78;5091348;28;20485;-47
2023/05/17 05:58:58;;;;;;;9.00;2.13;;;;;;;22.93;30.76;98670.94;5091354;28;20542;-46
2023/05/17 06:01:24;;;;;;;10.20;1.92;;;;;;;23.14;30.25;98684.97;5092644;28;20024;-46
2023/05/17 06:03:50;;;;;;;5.38;2.30;;;;;;;23.36;29.95;98697.84;5092517;28;20104;-47
2023/05/17 06:06:18;;;;;;;11.63;1.73;;;;;;;23.56;28.75;98675.41;5092482;28;20030;-47
2023/05/17 06:08:45;;;;;;;14.68;2.35;;;;;;;22.87;29.96;98690.78;5092546;28;20512;-47
2023/05/17 06:11:12;;;;;;;9.18;2.30;;;;;;;23.17;29.87;98676.34;5074449;28;20031;-47
2023/05/17 06:13:38;;;;;;;8.80;1.77;;;;;;;23.75;28.63;98680.03;5092391;28;20024;-47
2023/05/17 06:16:05;;;;;;;21.90;3.97;;;;;;;24.27;28.70;98694.38;5092366;28;20032;-47
2023/05/17 06:18:31;;;;;;;7.63;1.75;;;;;;;24.84;27.46;98688.97;5091005;28;20515;-47
2023/05/17 06:20:56;;;;;;;25.48;13.27;;;;;;;25.49;26.78;98698.81;5092311;28;20126;-47
2023/05/17 06:23:22;;;;;;;6.82;3.08;;;;;;;26.03;25.98;98689.16;5092144;28;20103;-47
2023/05/17 06:25:48;;;;;;;19.25;2.35;;;;;;;25.85;25.25;98693.53;5092139;28;20024;-47
2023/05/17 06:28:16;;;;;;;14.27;2.13;;;;;;;25.41;25.22;98700.31;5090885;28;20049;-47
2023/05/17 06:30:42;;;;;;;13.88;2.20;;;;;;;23.93;27.25;98698.81;5092341;28;20048;-47
2023/05/17 06:33:18;;;;;;;10.25;2.67;;;;;;;22.47;29.59;98714.09;5090770;28;20051;-46
2023/05/17 06:35:44;;;;;;;12.50;2.53;;;;;;;23.28;29.28;98711.84;5091076;28;20577;-47
2023/05/17 06:38:10;;;;;;;7.88;1.75;;;;;;;24.19;28.24;98711.13;5090565;28;20114;-47
2023/05/17 06:40:36;;;;;;;15.80;2.40;;;;;;;24.91;26.46;98708.97;5091573;28;20157;-47
2023/05/17 06:43:02;;;;;;;5.63;1.92;;;;;;;25.00;26.46;98724.41;5090971;28;20127;-47
2023/05/17 06:45:28;;;;;;;11.20;2.20;;;;;;;25.51;25.98;98718.13;5091438;28;20459;-47
2023/05/17 06:47:54;;;;;;;13.05;1.98;;;;;;;26.13;25.21;98714.25;5091950;28;20107;-47
2023/05/17 06:50:19;;;;;;;11.02;1.88;;;;;;;26.27;25.20;98709.63;5091832;28;20051;-47
2023/05/17 06:52:45;;;;;;;8.68;1.80;;;;;;;26.72;24.48;98725.81;5090529;28;20032;-47
2023/05/17 06:55:11;;;;;;;13.55;2.10;;;;;;;27.08;24.12;98714.16;5092073;28;20024;-47
2023/05/17 06:57:36;;;;;;;19.95;2.92;;;;;;;28.02;23.45;98714.88;5090784;28;20481;-47
2023/05/17 07:00:05;;;;;;;15.60;2.65;;;;;;;28.78;22.43;98713.66;5090444;28;20563;-47
2023/05/17 07:02:31;;;;;;;17.27;3.05;;;;;;;29.30;21.84;98711.94;5091686;28;20086;-47
2023/05/17 07:04:57;;;;;;;9.55;1.88;;;;;;;29.71;21.39;98722.13;5091713;28;20054;-47
2023/05/17 07:07:23;;;;;;;18.45;2.80;;;;;;;29.33;22.03;98722.13;5090681;28;20413;-48
2023/05/17 07:09:48;;;;;;;4.18;1.88;;;;;;;29.25;21.23;98719.13;5090371;28;20036;-47
2023/05/17 07:12:14;;;;;;;12.10;2.78;;;;;;;28.76;22.33;98721.28;5090335;28;20031;-47
2023/05/17 07:14:39;;;;;;;16.63;2.45;;;;;;;28.91;21.87;98727.28;5091694;28;20028;-47
2023/05/17 07:17:05;;;;;;;24.88;3.80;;;;;;;28.38;22.48;98716.50;5090287;28;20043;-47
2023/05/17 07:19:31;;;;;;;22.23;2.60;;;;;;;27.73;22.86;98711.94;5090341;28;20078;-47
2023/05/17 07:21:56;;;;;;;22.55;3.10;;;;;;;27.91;22.82;98719.00;5090640;28;20107;-47
2023/05/17 07:24:25;;;;;;;23.23;2.55;;;;;;;28.10;22.92;98713.31;5091499;28;20516;-47
2023/05/17 07:26:51;;;;;;;22.05;3.13;;;;;;;27.27;22.68;98714.00;5091553;28;20529;-47
2023/05/17 07:29:16;;;;;;;12.23;2.10;;;;;;;26.00;24.37;98729.31;5073323;28;20114;-47
2023/05/17 07:31:42;;;;;;;17.85;3.80;;;;;;;24.51;26.01;98734.56;5090428;28;20086;-47
2023/05/17 07:34:08;;;;;;;10.73;2.30;;;;;;;23.92;27.25;98729.41;5091513;28;20485;-47
2023/05/17 07:36:33;;;;;;;15.90;3.30;;;;;;;24.19;27.00;98732.56;5091759;28;20111;-44
2023/05/17 07:38:59;;;;;;;12.40;2.35;;;;;;;24.61;26.48;98722.84;5091484;28;20280;-45
2023/05/17 07:41:26;;;;;;;13.93;1.80;;;;;;;24.68;26.53;98720.63;5091008;28;20466;-45
2023/05/17 07:43:51;;;;;;;25.92;2.97;;;;;;;25.02;26.06;98751.75;5091534;28;20028;-45
2023/05/17 07:46:17;;;;;;;14.23;2.72;;;;;;;25.78;25.70;98746.91;5091330;28;20555;-46
2023/05/17 07:48:43;;;;;;;14.50;2.25;;;;;;;26.45;24.29;98730.19;5091308;28;20020;-45
2023/05/17 07:51:09;;;;;;;12.40;2.45;;;;;;;26.58;23.91;98727.78;5091288;28;20473;-45
2023/05/17 07:53:34;;;;;;;27.65;2.78;;;;;;;26.37;23.76;98735.50;5091327;28;20141;-45
2023/05/17 07:56:00;;;;;;;8.55;2.03;;;;;;;26.19;24.58;98737.25;5091189;28;20378;-45
2023/05/17 07:58:26;;;;;;;12.60;2.60;;;;;;;26.19;24.58;98735.34;5094603;28;20450;-45
2023/05/17 08:00:51;;;;;;;5.65;1.55;;;;;;;26.52;24.71;98745.91;5093882;28;20071;-46
2023/05/17 08:03:17;;;;;;;11.55;3.38;;;;;;;26.88;23.59;98743.22;5093621;28;20058;-45
2023/05/17 08:05:43;;;;;;;22.27;2.42;;;;;;;26.68;23.87;98735.63;5094628;28;20543;-45
2023/05/17 08:08:09;;;;;;;14.75;4.22;;;;;;;26.50;24.05;98707.72;5094826;28;20023;-45
2023/05/17 08:10:38;;;;;;;16.25;3.25;;;;;;;25.96;24.61;98745.25;5093420;28;20028;-45
2023/05/17 08:13:05;;;;;;;12.93;2.53;;;;;;;25.87;24.64;98733.56;5094735;28;20024;-45
2023/05/17 08:15:30;;;;;;;14.00;2.60;;;;;;;26.15;24.95;98737.03;5093268;28;20052;-45
2023/05/17 08:17:56;;;;;;;12.30;2.40;;;;;;;26.30;24.38;98735.94;5094491;28;20028;-45
2023/05/17 08:20:22;;;;;;;16.63;2.75;;;;;;;26.89;24.00;98731.34;5093189;28;20024;-46
2023/05/17 08:22:47;;;;;;;18.40;2.88;;;;;;;27.33;23.42;98736.22;5094462;28;20036;-46
2023/05/17 08:25:13;;;;;;;26.83;3.08;;;;;;;27.75;22.59;98733.97;5094351;28;20039;-46
2023/05/17 08:27:40;;;;;;;20.10;2.20;;;;;;;28.03;22.40;98727.28;5093424;28;20035;-46
2023/05/17 08:30:07;;;;;;;12.07;2.42;;;;;;;28.23;22.54;98723.19;5094353;28;20069;-46
2023/05/17 08:32:32;;;;;;;9.88;1.98;;;;;;;28.71;21.92;98718.72;5094551;28;20078;-47
2023/05/17 08:34:58;;;;;;;6.53;1.52;;;;;;;28.71;21.41;98713.34;5094336;28;20024;-46
2023/05/17 08:37:24;;;;;;;5.30;1.58;;;;;;;28.43;21.92;98724.47;5094204;28;20478;-46
2023/05/17 08:39:50;;;;;;;7.32;1.88;;;;;;;28.25;22.07;98714.75;5094125;28;20111;-46
2023/05/17 08:42:24;;;;;;;12.60;2.10;;;;;;;28.64;22.46;98718.44;5092680;28;20054;-46
2023/05/17 08:44:50;;;;;;;14.10;2.10;;;;;;;29.39;21.74;98720.81;5092853;28;20046;-46
2023/05/17 08:47:24;;;;;;;18.92;2.78;;;;;;;29.25;20.83;98704.81;5093996;28;20028;-46
2023/05/17 08:50:04;;;;;;;15.15;3.03;;;;;;;28.72;21.16;98720.34;5094072;28;20028;-46
2023/05/17 08:52:31;;;;;;;37.38;3.17;;;;;;;28.55;21.96;98715.72;5092481;28;20032;-46
2023/05/17 08:54:59;;;;;;;26.10;2.67;;;;;;;28.92;21.59;98720.78;5092567;28;20027;-46
2023/05/17 08:57:28;;;;;;;27.73;2.63;;;;;;;29.14;21.48;98719.78;5092839;28;20039;-47
2023/05/17 08:59:54;;;;;;;15.02;2.05;;;;;;;29.23;21.23;98724.06;5093688;28;20036;-46
2023/05/17 09:02:22;;;;;;;11.38;2.28;;;;;;;29.11;21.08;98715.81;5075643;28;20516;-46
2023/05/17 09:04:54;;;;;;;5.65;1.83;;;;;;;29.10;21.41;98733.13;5093814;28;20478;-46
2023/05/17 09:07:28;;;;;;;14.80;2.10;;;;;;;28.91;21.41;98727.28;5093909;28;20028;-46
2023/05/17 09:09:54;;;;;;;9.30;2.30;;;;;;;28.76;22.20;98721.28;5092015;28;20032;-46
2023/05/17 09:12:20;;;;;;;14.38;2.15;;;;;;;28.78;21.45;98720.97;5093492;28;20434;-46
2023/05/17 09:14:46;;;;;;;5.28;2.28;;;;;;;28.74;21.59;98728.13;5092237;28;20020;-46
2023/05/17 09:17:20;;;;;;;13.43;2.40;;;;;;;28.94;22.08;98723.97;5092063;28;20035;-46
2023/05/17 09:19:49;;;;;;;11.35;2.67;;;;;;;28.98;21.57;98724.91;5092233;28;20039;-46
2023/05/17 09:22:17;;;;;;;45.85;5.38;;;;;;;28.68;21.75;98717.47;5093344;28;20024;-46
2023/05/17 09:24:43;;;;;;;16.30;2.33;;;;;;;28.81;21.45;98712.22;5093285;28;20032;-45
2023/05/17 09:27:17;;;;;;;28.90;3.25;;;;;;;28.47;22.15;98720.00;5093191;28;20508;-46
2023/05/17 09:29:45;;;;;;;27.90;3.63;;;;;;;28.01;22.66;98716.00;5092001;28;20084;-46
2023/05/17 09:32:15;;;;;;;30.15;3.58;;;;;;;27.92;22.83;98723.28;5091848;28;20032;-46
2023/05/17 09:34:44;;;;;;;16.42;2.88;;;;;;;28.21;22.41;98727.28;5091795;28;20024;-46
2023/05/17 09:37:15;;;;;;;18.92;3.05;;;;;;;28.34;22.00;98709.38;5092072;28;20024;-46
2023/05/17 09:39:43;;;;;;;12.10;2.50;;;;;;;28.40;22.10;98711.59;5092037;28;20114;-46
2023/05/17 09:42:10;;;;;;;19.95;2.60;;;;;;;27.52;23.10;98723.28;5092819;28;20052;-45
2023/05/17 09:44:46;;;;;;;19.10;2.90;;;;;;;27.24;23.90;98731.56;5092820;28;20038;-46
2023/05/17 09:47:25;;;;;;;9.00;1.88;;;;;;;27.30;23.54;98727.63;5091809;28;20508;-46
2023/05/17 09:49:51;;;;;;;7.68;1.45;;;;;;;26.53;24.57;98741.34;5092941;28;20032;-46
2023/05/17 09:52:20;;;;;;;24.70;3.30;;;;;;;26.48;24.74;98739.53;5091408;28;20028;-46
2023/05/17 09:54:57;;;;;;;9.48;1.67;;;;;;;26.29;25.43;98731.63;5092760;28;20099;-46
2023/05/17 09:57:26;;;;;;;13.50;1.88;;;;;;;27.81;24.07;98711.16;5091360;28;20184;-46
2023/05/17 09:59:56;;;;;;;27.83;2.78;;;;;;;28.15;22.62;98721.28;5091406;28;20027;-46
2023/05/17 10:02:31;;;;;;;8.50;2.33;;;;;;;27.39;23.87;98734.97;5092866;28;20031;-46
2023/05/17 10:04:57;;;;;;;10.98;2.35;;;;;;;26.96;24.49;98738.19;5092805;28;20031;-46
2023/05/17 10:07:24;;;;;;;27.65;3.38;;;;;;;26.08;25.39;98736.66;5092566;28;20481;-46
2023/05/17 10:09:53;;;;;;;11.18;1.95;;;;;;;25.05;25.99;98743.91;5091224;28;20050;-45
2023/05/17 10:12:22;;;;;;;17.92;2.83;;;;;;;23.80;27.67;98720.97;5092413;28;20028;-45
2023/05/17 10:14:48;;;;;;;14.07;2.60;;;;;;;23.17;29.03;98737.16;5092430;28;20024;-46
2023/05/17 10:17:15;;;;;;;14.25;2.60;;;;;;;23.07;29.11;98736.16;5074144;28;20405;-46
2023/05/17 10:19:42;;;;;;;16.23;2.58;;;;;;;23.17;29.27;98732.59;5090828;28;20134;-45
2023/05/17 10:22:08;;;;;;;12.60;2.70;;;;;;;22.94;29.53;98732.22;5090447;28;20036;-46
2023/05/17 10:24:36;;;;;;;16.08;2.65;;;;;;;22.44;30.06;98728.84;5090845;28;20032;-46
2023/05/17 10:27:02;;;;;;;14.52;1.98;;;;;;;22.08;30.89;98731.66;5092097;28;20031;-46
2023/05/17 10:29:32;;;;;;;11.10;2.25;;;;;;;21.76;31.27;98724.06;5090913;28;20107;-45
2023/05/17 10:31:59;;;;;;;9.05;1.85;;;;;;;21.35;31.82;98713.47;5092164;28;20020;-45
2023/05/17 10:34:27;;;;;;;19.50;2.75;;;;;;;20.90;32.58;98709.75;5090748;28;20107;-46
2023/05/17 10:36:54;;;;;;;19.17;2.80;;;;;;;20.56;33.53;98728.91;5092069;28;20077;-45
2023/05/17 10:39:21;;;;;;;14.80;2.60;;;;;;;20.29;33.65;98721.94;5090714;28;20064;-46
2023/05/17 10:41:51;;;;;;;17.52;3.15;;;;;;;20.03;34.55;98729.06;5090462;28;20055;-46
2023/05/17 10:44:17;;;;;;;19.85;2.55;;;;;;;19.92;34.71;98736.22;5090589;28;20043;-45
2023/05/17 10:46:56;;;;;;;27.00;2.58;;;;;;;19.73;34.92;98722.53;5091913;28;20028;-45
2023/05/17 10:49:29;;;;;;;10.18;2.47;;;;;;;19.57;35.15;98728.81;5091888;28;20031;-45
2023/05/17 10:51:57;;;;;;;12.05;3.03;;;;;;;19.44;35.72;98729.28;5091844;28;20055;-45
2023/05/17 10:54:38;;;;;;;13.52;2.10;;;;;;;19.46;35.85;98724.50;5090531;28;20028;-46
2023/05/17 10:57:05;;;;;;;14.00;2.38;;;;;;;19.66;35.66;98723.78;5091856;28;20020;-46
2023/05/17 10:59:32;;;;;;;21.00;2.50;;;;;;;19.81;35.67;98723.09;5074133;28;20104;-45
2023/05/17 11:02:05;;;;;;;12.02;1.90;;;;;;;19.91;34.99;98710.63;5091711;28;20028;-46
2023/05/17 11:04:40;;;;;;;26.50;2.53;;;;;;;19.92;34.92;98696.25;5090370;28;20107;-45
2023/05/17 11:07:19;;;;;;;22.42;3.22;;;;;;;19.91;34.94;98723.94;5091744;28;20529;-46
2023/05/17 11:10:07;;;;;;;23.13;2.33;;;;;;;19.85;35.23;98727.66;5092009;28;20402;-46
2023/05/17 11:12:54;;;;;;;20.88;3.03;;;;;;;19.86;35.23;98728.44;5090800;28;20559;-46
2023/05/17 11:15:24;;;;;;;28.20;2.95;;;;;;;19.80;34.74;98692.19;5091653;28;20024;-45
2023/05/17 11:17:52;;;;;;;21.85;2.90;;;;;;;19.68;35.07;98713.69;5091720;28;20401;-46
2023/05/17 11:20:24;;;;;;;14.25;2.42;;;;;;;19.71;34.99;98711.34;5091654;28;20034;-46
2023/05/17 11:22:58;;;;;;;34.72;3.47;;;;;;;19.67;35.20;98701.44;5091675;28;20111;-46
2023/05/17 11:25:28;;;;;;;20.70;3.42;;;;;;;19.83;35.12;98713.78;5091537;28;20036;-45
2023/05/17 11:27:54;;;;;;;34.53;3.75;;;;;;;20.04;34.91;98712.00;5090513;28;20111;-46
2023/05/17 11:30:25;;;;;;;12.57;2.40;;;;;;;20.35;34.11;98704.09;5090519;28;20051;-46